Time;durP1;ratioP1;P1;durP2;ratioP2;P2;SDS_P1;SDS_P2;PMS_P1;PMS_P2;Temp;Humidity;BMP_temperature;BMP_pressure;BME280_temperature;BME280_humidity;BME280_pressure;Samples;Min_cycle;Max_cycle;Signal;HPM_P1;HPM_P2
2023/08/25 00:01:37;;;;;;;23.63;13.18;;;;;;;24.33;79.69;101026.81;5051162;28;20059;-45
2023/08/25 00:04:02;;;;;;;27.00;14.40;;;;;;;24.35;79.31;101026.72;5051520;28;20075;-47
2023/08/25 00:06:27;;;;;;;23.00;12.77;;;;;;;24.25;79.52;101027.13;5050891;28;20121;-43
2023/08/25 00:08:53;;;;;;;27.05;14.57;;;;;;;24.07;80.42;101025.16;5052091;28;20136;-44
2023/08/25 00:11:18;;;;;;;23.13;12.55;;;;;;;24.20;79.58;101025.56;5051384;28;20529;-48
2023/08/25 00:13:43;;;;;;;22.80;12.90;;;;;;;24.26;79.57;101020.00;5051315;28;20631;-46
2023/08/25 00:16:09;;;;;;;23.50;13.20;;;;;;;24.31;79.01;101027.78;5051031;28;20063;-48
2023/08/25 00:18:34;;;;;;;25.58;13.48;;;;;;;24.31;78.82;101011.81;5051339;28;20039;-45
2023/08/25 00:21:00;;;;;;;20.85;11.73;;;;;;;24.27;78.56;101013.75;5051042;28;20056;-46
2023/08/25 00:23:25;;;;;;;25.33;13.77;;;;;;;24.20;79.08;101014.91;5050750;28;20082;-47
2023/08/25 00:25:53;;;;;;;23.17;13.52;;;;;;;24.20;79.41;101012.25;5050879;28;20167;-46
2023/08/25 00:28:18;;;;;;;25.40;13.82;;;;;;;24.13;79.79;101014.25;5050967;28;20048;-45
2023/08/25 00:30:43;;;;;;;28.65;13.73;;;;;;;24.20;79.18;101013.13;5050904;28;20037;-45
2023/08/25 00:33:09;;;;;;;23.48;13.32;;;;;;;24.10;79.52;101009.03;5049722;28;20036;-45
2023/08/25 00:35:34;;;;;;;26.23;13.00;;;;;;;24.13;78.96;101006.28;5048837;28;20457;-46
2023/08/25 00:37:59;;;;;;;28.13;13.68;;;;;;;24.01;79.39;101009.44;5051172;28;20041;-47
2023/08/25 00:40:25;;;;;;;30.10;13.55;;;;;;;24.01;79.44;101005.91;5050357;28;20045;-45
2023/08/25 00:42:50;;;;;;;22.55;13.30;;;;;;;24.01;79.51;101011.22;5049856;28;20033;-46
2023/08/25 00:45:16;;;;;;;26.70;13.98;;;;;;;23.96;79.11;101016.75;5049729;28;20048;-49
2023/08/25 00:47:41;;;;;;;24.98;13.35;;;;;;;23.96;78.84;101010.53;5050996;28;20052;-45
2023/08/25 00:50:09;;;;;;;24.50;12.73;;;;;;;23.95;79.18;101017.66;5050244;28;20032;-43
2023/08/25 00:52:36;;;;;;;20.10;10.65;;;;;;;23.95;79.15;101024.78;5050002;28;20037;-44
2023/08/25 00:55:03;;;;;;;21.95;12.02;;;;;;;23.91;79.06;101018.69;5050223;28;20089;-44
2023/08/25 00:57:31;;;;;;;21.70;11.82;;;;;;;23.88;78.93;101020.63;5050253;28;20029;-46
2023/08/25 00:59:57;;;;;;;25.10;12.57;;;;;;;23.89;78.56;101019.69;5050308;28;20052;-46
2023/08/25 01:02:22;;;;;;;23.13;12.00;;;;;;;23.85;78.58;101026.91;5049956;28;20029;-42
2023/08/25 01:04:47;;;;;;;29.67;11.48;;;;;;;23.82;78.66;101029.72;5049873;28;20056;-47
2023/08/25 01:07:13;;;;;;;20.02;11.38;;;;;;;23.81;79.08;101017.31;5050377;28;20120;-46
2023/08/25 01:09:38;;;;;;;24.45;12.60;;;;;;;23.82;79.07;101016.41;5049740;28;20624;-45
2023/08/25 01:12:08;;;;;;;23.75;11.43;;;;;;;23.84;78.59;101022.53;5049536;28;20411;-49
2023/08/25 01:14:40;;;;;;;23.85;12.10;;;;;;;23.84;78.65;101014.56;5049298;28;20120;-42
2023/08/25 01:17:28;;;;;;;24.13;11.60;;;;;;;23.81;78.94;101027.97;5050415;28;20527;-46
2023/08/25 01:20:00;;;;;;;24.25;12.18;;;;;;;23.77;79.10;101016.59;5049889;28;20043;-45
2023/08/25 01:22:46;;;;;;;23.63;11.75;;;;;;;23.77;78.82;101013.94;5049521;28;20044;-43
2023/08/25 01:25:22;;;;;;;27.95;13.65;;;;;;;23.78;78.80;101014.78;5049629;28;20044;-47
2023/08/25 01:27:50;;;;;;;25.00;12.73;;;;;;;23.80;78.86;101016.44;5042291;28;20051;-44
2023/08/25 01:30:15;;;;;;;33.22;16.05;;;;;;;23.87;79.85;101019.75;5050175;28;20032;-45
2023/08/25 01:32:40;;;;;;;31.38;14.85;;;;;;;23.96;79.85;101024.72;5049584;28;20033;-47
2023/08/25 01:35:06;;;;;;;31.77;14.73;;;;;;;24.04;80.27;101019.94;5049713;28;20135;-44
2023/08/25 01:37:40;;;;;;;34.30;16.65;;;;;;;24.08;80.53;101016.25;5050011;28;20599;-45
2023/08/25 01:40:15;;;;;;;32.05;15.35;;;;;;;24.16;80.32;101010.59;5050559;28;20502;-45
2023/08/25 01:42:45;;;;;;;30.38;14.70;;;;;;;23.96;81.16;101015.88;5050681;28;20035;-45
2023/08/25 01:45:11;;;;;;;27.02;13.82;;;;;;;24.10;80.58;101003.72;5050374;28;20098;-46
2023/08/25 01:47:38;;;;;;;25.88;13.38;;;;;;;24.06;80.12;101004.78;5050916;28;20037;-43
2023/08/25 01:50:05;;;;;;;25.42;12.85;;;;;;;24.09;79.52;101001.97;5051038;28;20033;-51
2023/08/25 01:52:31;;;;;;;24.70;12.10;;;;;;;24.05;79.14;100997.72;5049970;28;20495;-43
2023/08/25 01:54:56;;;;;;;25.08;12.35;;;;;;;24.00;79.29;100998.81;5052079;28;20063;-42
2023/08/25 01:57:21;;;;;;;25.67;12.93;;;;;;;23.93;79.42;101000.00;5052859;28;20041;-48
2023/08/25 01:59:47;;;;;;;23.90;12.10;;;;;;;23.88;79.17;101000.19;5051832;28;20086;-44
2023/08/25 02:02:12;;;;;;;24.52;12.25;;;;;;;23.88;79.13;100997.53;5050997;28;20091;-47
2023/08/25 02:04:37;;;;;;;23.60;11.88;;;;;;;23.90;79.22;100989.47;5049657;28;20566;-46
2023/08/25 02:07:02;;;;;;;26.20;12.48;;;;;;;23.87;79.27;100990.47;5052376;28;20117;-45
2023/08/25 02:09:28;;;;;;;23.85;11.82;;;;;;;23.88;79.54;100994.00;5052457;28;20060;-46
2023/08/25 02:11:53;;;;;;;24.95;11.93;;;;;;;23.91;79.84;100996.53;5050677;28;20507;-43
2023/08/25 02:14:18;;;;;;;26.73;12.95;;;;;;;23.92;80.30;100996.47;5050080;28;20029;-45
2023/08/25 02:16:44;;;;;;;28.50;13.55;;;;;;;23.93;80.37;100992.88;5049644;28;20036;-44
2023/08/25 02:19:09;;;;;;;28.80;13.80;;;;;;;24.03;80.32;100988.06;5049290;28;20056;-44
2023/08/25 02:21:34;;;;;;;29.85;14.15;;;;;;;24.02;80.40;100991.66;5048928;28;20048;-46
2023/08/25 02:24:00;;;;;;;28.65;13.90;;;;;;;24.09;79.43;100983.31;5049255;28;20033;-44
2023/08/25 02:26:25;;;;;;;30.10;13.75;;;;;;;24.01;79.25;100982.78;5047116;28;20155;-45
2023/08/25 02:28:50;;;;;;;32.30;15.10;;;;;;;23.89;79.53;100971.75;5049122;28;20127;-49
2023/08/25 02:31:16;;;;;;;35.38;15.63;;;;;;;23.80;79.86;100968.53;5047875;28;20422;-51
2023/08/25 02:33:41;;;;;;;33.38;14.95;;;;;;;23.82;79.51;100964.03;5049371;28;20025;-50
2023/08/25 02:36:06;;;;;;;30.50;13.82;;;;;;;23.82;79.03;100961.34;5048900;28;20033;-45
2023/08/25 02:38:32;;;;;;;34.20;14.68;;;;;;;23.78;79.00;100957.09;5048764;28;20048;-46
2023/08/25 02:40:57;;;;;;;32.22;13.43;;;;;;;23.77;79.29;100952.69;5048891;28;20037;-49
2023/08/25 02:43:22;;;;;;;36.20;14.00;;;;;;;23.78;79.10;100950.91;5048639;28;20166;-45
2023/08/25 02:45:48;;;;;;;32.83;13.70;;;;;;;23.72;79.21;100951.16;5048605;28;20166;-48
2023/08/25 02:48:13;;;;;;;31.17;14.43;;;;;;;23.70;79.43;100942.34;5048352;28;20086;-44
2023/08/25 02:50:39;;;;;;;36.15;16.42;;;;;;;23.61;79.62;100945.34;5048715;28;20044;-44
2023/08/25 02:53:04;;;;;;;38.70;16.25;;;;;;;23.61;79.94;100945.34;5048862;28;20033;-49
2023/08/25 02:55:29;;;;;;;41.45;16.13;;;;;;;23.62;80.15;100947.09;5047724;28;20068;-45
2023/08/25 02:57:55;;;;;;;38.05;15.25;;;;;;;23.65;79.89;100942.53;5048924;28;20033;-44
2023/08/25 03:00:23;;;;;;;38.22;15.50;;;;;;;23.64;80.14;100935.47;5048376;28;20059;-46
2023/08/25 03:02:49;;;;;;;35.85;14.80;;;;;;;23.73;80.31;100936.88;5048943;28;20656;-45
2023/08/25 03:05:15;;;;;;;37.78;15.57;;;;;;;23.77;80.35;100928.72;5048243;28;20593;-43
2023/08/25 03:07:40;;;;;;;37.53;15.30;;;;;;;23.83;80.75;100924.97;5048604;28;20124;-45
2023/08/25 03:10:07;;;;;;;39.05;15.68;;;;;;;23.88;80.48;100922.97;5048757;28;20041;-46
2023/08/25 03:12:33;;;;;;;32.20;14.05;;;;;;;23.97;80.53;100924.41;5048548;28;20041;-44
2023/08/25 03:14:58;;;;;;;35.08;14.55;;;;;;;23.99;80.61;100925.19;5050811;28;20573;-44
2023/08/25 03:17:25;;;;;;;36.83;15.15;;;;;;;24.04;80.28;100920.53;5052370;28;20044;-45
2023/08/25 03:19:50;;;;;;;35.25;14.38;;;;;;;24.05;80.68;100916.94;5052015;28;20036;-43
2023/08/25 03:22:16;;;;;;;36.60;15.30;;;;;;;24.11;80.57;100916.69;5052594;28;20498;-44
2023/08/25 03:24:41;;;;;;;36.10;15.15;;;;;;;24.12;80.65;100911.31;5051495;28;20041;-47
2023/08/25 03:27:06;;;;;;;32.22;14.43;;;;;;;24.15;80.49;100910.31;5052598;28;20724;-43
2023/08/25 03:29:32;;;;;;;38.15;14.80;;;;;;;24.20;80.44;100914.56;5051871;28;20094;-46
2023/08/25 03:31:58;;;;;;;35.53;15.05;;;;;;;24.18;80.50;100905.75;5052645;28;20026;-45
2023/08/25 03:34:23;;;;;;;36.38;16.00;;;;;;;24.21;80.27;100902.94;5052393;28;20400;-44
2023/08/25 03:36:49;;;;;;;40.72;17.25;;;;;;;24.21;80.48;100902.94;5052048;28;20075;-45
2023/08/25 03:39:14;;;;;;;37.58;15.90;;;;;;;24.27;80.17;100904.50;5057342;28;20097;-49
2023/08/25 03:41:39;;;;;;;38.33;17.25;;;;;;;24.24;80.23;100899.28;5062768;28;20033;-47
2023/08/25 03:44:05;;;;;;;40.45;16.73;;;;;;;24.27;80.09;100905.34;5062362;28;20057;-45
2023/08/25 03:46:31;;;;;;;40.55;17.45;;;;;;;24.23;80.43;100908.22;5052219;28;20057;-44
2023/08/25 03:48:57;;;;;;;39.85;17.45;;;;;;;24.27;80.37;100905.34;5052291;28;20055;-45
2023/08/25 03:51:22;;;;;;;41.30;17.48;;;;;;;24.28;80.28;100906.22;5051501;28;20037;-43
2023/08/25 03:53:48;;;;;;;39.65;17.45;;;;;;;24.31;80.20;100902.56;5052274;28;20491;-43
2023/08/25 03:56:13;;;;;;;39.88;17.38;;;;;;;24.30;80.04;100900.81;5051721;28;20037;-46
2023/08/25 03:58:38;;;;;;;40.55;16.42;;;;;;;24.34;80.10;100897.09;5051390;28;20040;-47
2023/08/25 04:01:04;;;;;;;38.97;16.85;;;;;;;24.34;79.66;100892.63;5051502;28;20447;-50
2023/08/25 04:03:29;;;;;;;38.05;16.25;;;;;;;24.36;79.85;100890.78;5050106;28;20036;-47
2023/08/25 04:05:54;;;;;;;36.78;16.65;;;;;;;24.28;80.35;100900.88;5050985;28;20029;-44
2023/08/25 04:08:20;;;;;;;37.70;17.35;;;;;;;24.23;80.64;100894.88;5050092;28;20060;-48
2023/08/25 04:10:47;;;;;;;39.33;17.15;;;;;;;24.33;79.97;100890.06;5051324;28;20167;-44
2023/08/25 04:13:13;;;;;;;34.53;15.73;;;;;;;24.34;80.11;100886.44;5051239;28;20455;-47
2023/08/25 04:15:38;;;;;;;37.92;16.30;;;;;;;24.34;79.94;100889.09;5049234;28;20029;-47
2023/08/25 04:18:05;;;;;;;38.83;16.40;;;;;;;24.33;79.68;100887.38;5052026;28;20033;-48
2023/08/25 04:20:30;;;;;;;34.92;16.00;;;;;;;24.37;79.93;100887.19;5050839;28;20051;-45
2023/08/25 04:22:55;;;;;;;35.63;16.25;;;;;;;24.39;79.64;100888.00;5051269;28;20041;-48
2023/08/25 04:25:21;;;;;;;39.13;16.77;;;;;;;24.32;80.03;100875.84;5049160;28;20036;-47
2023/08/25 04:27:46;;;;;;;39.60;16.98;;;;;;;24.09;80.54;100879.44;5051289;28;20048;-44
2023/08/25 04:30:12;;;;;;;39.58;17.30;;;;;;;23.80;82.04;100887.78;5051163;28;20091;-45
2023/08/25 04:32:37;;;;;;;41.25;17.45;;;;;;;23.90;82.03;100880.31;5050939;28;20116;-47
2023/08/25 04:35:03;;;;;;;41.28;17.60;;;;;;;24.05;81.10;100885.84;5051191;28;20033;-43
2023/08/25 04:37:28;;;;;;;37.00;16.95;;;;;;;24.17;80.63;100889.78;5051056;28;20036;-43
2023/08/25 04:39:55;;;;;;;40.05;18.52;;;;;;;24.17;81.04;100895.13;5050847;28;20411;-45
2023/08/25 04:42:21;;;;;;;36.75;17.48;;;;;;;24.27;80.35;100903.63;5050503;28;20086;-46
2023/08/25 04:44:47;;;;;;;36.05;16.27;;;;;;;24.29;80.04;100902.63;5050261;28;20037;-45
2023/08/25 04:47:12;;;;;;;33.08;15.40;;;;;;;24.31;80.31;100907.88;5050847;28;20116;-48
2023/08/25 04:49:38;;;;;;;36.90;15.68;;;;;;;24.30;80.32;100899.03;5050207;28;20068;-46
2023/08/25 04:52:03;;;;;;;32.13;15.27;;;;;;;24.27;80.55;100902.69;5050596;28;20063;-46
2023/08/25 04:54:28;;;;;;;39.97;16.45;;;;;;;24.08;81.41;100900.84;5050147;28;20037;-44
2023/08/25 04:56:54;;;;;;;32.80;15.18;;;;;;;24.14;81.33;100903.25;5050244;28;20028;-47
2023/08/25 04:59:19;;;;;;;33.95;15.20;;;;;;;24.05;81.27;100903.63;5050160;28;20130;-43
2023/08/25 05:01:45;;;;;;;35.80;15.38;;;;;;;24.02;81.60;100901.97;5050319;28;20045;-47
2023/08/25 05:04:11;;;;;;;32.53;14.60;;;;;;;24.11;81.45;100903.38;5050186;28;20060;-44
2023/08/25 05:06:37;;;;;;;31.88;14.80;;;;;;;24.22;80.94;100898.47;5049460;28;20045;-43
2023/08/25 05:09:02;;;;;;;32.97;14.15;;;;;;;24.24;80.85;100892.16;5050231;28;20058;-45
2023/08/25 05:11:28;;;;;;;33.25;13.43;;;;;;;23.88;81.98;100896.34;5049828;28;20047;-41
2023/08/25 05:13:53;;;;;;;33.50;13.95;;;;;;;23.98;82.08;100895.03;5050521;28;20036;-48
2023/08/25 05:16:19;;;;;;;27.15;13.43;;;;;;;24.23;81.00;100889.56;5049521;28;20112;-43
2023/08/25 05:18:44;;;;;;;27.85;12.73;;;;;;;24.36;80.69;100890.78;5050384;28;20473;-42
2023/08/25 05:21:10;;;;;;;29.27;13.18;;;;;;;24.33;80.66;100885.59;5049905;28;20098;-46
2023/08/25 05:23:36;;;;;;;27.00;12.32;;;;;;;24.40;80.34;100887.03;5049741;28;20037;-44
2023/08/25 05:26:02;;;;;;;25.50;11.57;;;;;;;24.44;80.31;100901.09;5049502;28;20493;-44
2023/08/25 05:28:27;;;;;;;28.85;13.27;;;;;;;24.48;80.04;100898.22;5049650;28;20052;-45
2023/08/25 05:30:52;;;;;;;26.90;12.75;;;;;;;24.51;80.09;100892.78;5049682;28;20037;-45
2023/08/25 05:33:18;;;;;;;22.23;10.95;;;;;;;24.66;79.87;100889.44;5049470;28;20041;-44
2023/08/25 05:35:43;;;;;;;23.75;11.60;;;;;;;24.50;80.60;100892.84;5049092;28;20552;-44
2023/08/25 05:38:08;;;;;;;27.08;12.07;;;;;;;24.07;81.50;100885.78;5049618;28;20037;-43
2023/08/25 05:40:34;;;;;;;26.05;12.20;;;;;;;24.39;80.44;100882.66;5049133;28;20033;-44
2023/08/25 05:42:59;;;;;;;25.17;11.50;;;;;;;24.53;80.23;100874.03;5049714;28;20041;-43
2023/08/25 05:45:24;;;;;;;21.00;10.45;;;;;;;24.63;79.48;100878.91;5047390;28;20037;-46
2023/08/25 05:47:50;;;;;;;20.85;10.77;;;;;;;24.72;78.93;100879.41;5049723;28;20057;-44
2023/08/25 05:50:15;;;;;;;20.38;9.60;;;;;;;24.77;78.74;100880.06;5049409;28;20033;-43
2023/08/25 05:52:41;;;;;;;21.85;11.60;;;;;;;24.67;79.25;100885.81;5049170;28;20033;-45
2023/08/25 05:55:08;;;;;;;22.42;11.68;;;;;;;24.82;79.52;100889.63;5048580;28;20068;-45
2023/08/25 05:57:33;;;;;;;22.40;11.02;;;;;;;24.99;79.69;100880.88;5048985;28;20043;-44
2023/08/25 05:59:59;;;;;;;22.65;11.68;;;;;;;24.96;78.69;100884.53;5049175;28;20036;-48
2023/08/25 06:02:24;;;;;;;26.67;12.15;;;;;;;24.78;78.21;100877.34;5048765;28;20071;-44
2023/08/25 06:04:49;;;;;;;28.20;13.05;;;;;;;24.78;78.59;100866.69;5048977;28;20406;-47
2023/08/25 06:07:15;;;;;;;25.15;12.75;;;;;;;24.75;78.44;100871.28;5049452;28;20040;-43
2023/08/25 06:09:41;;;;;;;26.42;13.60;;;;;;;24.53;78.51;100863.38;5049010;28;20103;-45
2023/08/25 06:12:07;;;;;;;26.67;13.65;;;;;;;24.53;78.86;100869.56;5049356;28;20637;-43
2023/08/25 06:14:33;;;;;;;25.02;13.60;;;;;;;24.74;78.05;100869.56;5048289;28;20048;-49
2023/08/25 06:17:02;;;;;;;26.90;14.13;;;;;;;24.34;79.11;100867.78;5049364;28;20422;-44
2023/08/25 06:19:28;;;;;;;23.35;13.52;;;;;;;24.32;79.18;100861.66;5048808;28;20044;-44
2023/08/25 06:21:53;;;;;;;25.98;13.43;;;;;;;24.53;79.08;100864.25;5049101;28;20041;-44
2023/08/25 06:24:18;;;;;;;25.90;14.05;;;;;;;24.54;78.55;100871.31;5048957;28;20029;-45
2023/08/25 06:26:44;;;;;;;25.45;13.18;;;;;;;24.85;78.26;100872.59;5049206;28;20063;-46
2023/08/25 06:29:10;;;;;;;23.40;13.48;;;;;;;24.88;77.65;100867.16;5049095;28;20380;-44
2023/08/25 06:31:36;;;;;;;23.92;13.32;;;;;;;24.48;77.80;100876.03;5048581;28;20045;-44
2023/08/25 06:34:04;;;;;;;26.83;13.95;;;;;;;24.63;77.59;100870.91;5048952;28;20033;-44
2023/08/25 06:36:32;;;;;;;26.20;13.55;;;;;;;24.60;77.91;100875.50;5047330;28;20029;-45
2023/08/25 06:38:58;;;;;;;36.63;14.82;;;;;;;24.50;77.73;100872.38;5048458;28;20484;-43
2023/08/25 06:41:24;;;;;;;26.58;14.93;;;;;;;24.63;77.70;100878.03;5048479;28;20040;-46
2023/08/25 06:43:49;;;;;;;25.30;14.20;;;;;;;24.63;77.32;100872.72;5049423;28;20045;-47
2023/08/25 06:46:14;;;;;;;24.45;14.85;;;;;;;24.35;78.15;100880.16;5048691;28;20082;-45
2023/08/25 06:48:40;;;;;;;26.90;15.63;;;;;;;24.77;76.97;100875.59;5049030;28;20115;-46
2023/08/25 06:51:05;;;;;;;31.50;16.15;;;;;;;24.45;77.43;100881.53;5052689;28;20068;-45
2023/08/25 06:53:30;;;;;;;29.10;15.48;;;;;;;24.71;76.70;100880.34;5052471;28;20128;-43
2023/08/25 06:55:56;;;;;;;28.13;16.02;;;;;;;24.91;75.87;100886.56;5052311;28;20063;-45
2023/08/25 06:58:21;;;;;;;26.10;15.18;;;;;;;24.82;75.27;100883.41;5053018;28;20422;-45
2023/08/25 07:00:47;;;;;;;29.60;14.63;;;;;;;24.67;75.88;100888.50;5053943;28;20671;-46
2023/08/25 07:03:13;;;;;;;25.08;14.75;;;;;;;24.57;75.46;100884.53;5053800;28;20056;-43
2023/08/25 07:05:38;;;;;;;29.58;14.98;;;;;;;24.83;75.86;100878.00;5053586;28;20543;-50
2023/08/25 07:08:05;;;;;;;25.42;14.57;;;;;;;25.22;74.83;100866.47;5053150;28;20033;-45
2023/08/25 07:10:30;;;;;;;27.83;15.65;;;;;;;24.94;75.50;100872.22;5052779;28;20029;-46
2023/08/25 07:12:56;;;;;;;32.17;16.27;;;;;;;24.65;76.08;100876.16;5053727;28;20036;-45
2023/08/25 07:15:21;;;;;;;25.25;15.20;;;;;;;25.24;75.04;100865.47;5053149;28;20055;-42
2023/08/25 07:17:47;;;;;;;30.00;16.23;;;;;;;24.86;75.21;100864.53;5053555;28;20035;-47
2023/08/25 07:20:13;;;;;;;28.65;16.25;;;;;;;24.74;75.30;100857.09;5053073;28;20041;-47
2023/08/25 07:22:40;;;;;;;27.33;15.93;;;;;;;24.68;75.97;100860.03;5052084;28;20608;-44
2023/08/25 07:25:06;;;;;;;29.58;16.05;;;;;;;24.56;76.40;100847.25;5052061;28;20037;-47
2023/08/25 07:27:31;;;;;;;26.52;15.55;;;;;;;25.02;74.49;100843.38;5051755;28;20036;-44
2023/08/25 07:29:58;;;;;;;27.98;15.05;;;;;;;25.37;74.31;100829.22;5052466;28;20048;-45
2023/08/25 07:32:24;;;;;;;24.38;13.50;;;;;;;25.80;71.81;100837.81;5054292;28;20511;-47
2023/08/25 07:34:49;;;;;;;24.20;15.52;;;;;;;25.78;69.89;100837.91;5055699;28;20056;-48
2023/08/25 07:37:15;;;;;;;24.50;14.52;;;;;;;26.19;69.78;100843.81;5057663;28;20029;-45
2023/08/25 07:39:40;;;;;;;22.45;14.27;;;;;;;26.29;66.80;100838.88;5055431;28;20028;-42
2023/08/25 07:42:06;;;;;;;26.52;15.88;;;;;;;25.81;70.36;100851.09;5055902;28;20172;-46
2023/08/25 07:44:32;;;;;;;27.02;14.02;;;;;;;25.71;70.69;100854.31;5053370;28;20491;-47
2023/08/25 07:46:57;;;;;;;23.60;14.57;;;;;;;25.55;71.14;100850.63;5052525;28;20037;-44
2023/08/25 07:49:23;;;;;;;25.15;14.20;;;;;;;25.82;71.15;100858.16;5052172;28;20064;-43
2023/08/25 07:51:48;;;;;;;25.23;14.55;;;;;;;25.41;71.81;100851.31;5052787;28;20483;-49
2023/08/25 07:54:13;;;;;;;21.92;13.13;;;;;;;25.89;71.23;100864.06;5052347;28;20127;-45
2023/08/25 07:56:39;;;;;;;24.95;13.35;;;;;;;25.74;69.25;100864.81;5051959;28;20028;-45
2023/08/25 07:59:05;;;;;;;22.08;12.20;;;;;;;25.97;68.07;100867.22;5052956;28;20068;-48
2023/08/25 08:01:31;;;;;;;21.83;13.00;;;;;;;25.52;69.10;100865.00;5061757;22;20036;-46
2023/08/25 08:03:56;;;;;;;26.15;12.85;;;;;;;25.17;70.49;100874.69;5011525;28;20046;-45
2023/08/25 08:06:22;;;;;;;20.23;12.48;;;;;;;25.59;70.00;100865.59;5011102;28;20401;-46
2023/08/25 08:08:48;;;;;;;17.60;10.43;;;;;;;25.90;68.73;100862.28;5011951;28;20076;-45
2023/08/25 08:11:14;;;;;;;17.33;10.30;;;;;;;26.10;67.00;100865.69;5011595;28;20037;-46
2023/08/25 08:13:39;;;;;;;16.65;10.50;;;;;;;25.93;68.37;100862.09;5030704;28;20029;-44
2023/08/25 08:16:05;;;;;;;17.58;10.32;;;;;;;26.30;67.47;100858.44;5030897;28;20041;-47
2023/08/25 08:18:30;;;;;;;17.10;9.90;;;;;;;26.55;66.88;100856.22;5030911;28;20078;-45
2023/08/25 08:20:56;;;;;;;21.55;12.02;;;;;;;25.54;68.26;100857.78;5031074;28;20047;-48
2023/08/25 08:23:21;;;;;;;20.42;11.75;;;;;;;25.81;68.43;100859.09;5030843;28;20099;-45
2023/08/25 08:25:46;;;;;;;21.33;11.10;;;;;;;25.90;68.40;100867.63;5029648;28;20022;-43
2023/08/25 08:28:12;;;;;;;20.50;11.02;;;;;;;25.78;68.15;100871.75;5031465;28;20563;-45
2023/08/25 08:30:37;;;;;;;19.75;10.80;;;;;;;25.86;68.48;100873.09;5029598;28;20036;-43
2023/08/25 08:33:04;;;;;;;20.23;11.77;;;;;;;25.34;69.55;100868.53;5031260;28;20071;-45
2023/08/25 08:35:30;;;;;;;19.80;10.48;;;;;;;26.16;67.42;100864.50;5029867;28;20033;-45
2023/08/25 08:37:55;;;;;;;17.40;10.55;;;;;;;26.60;64.46;100867.53;5031146;28;20029;-43
2023/08/25 08:40:21;;;;;;;21.88;11.48;;;;;;;25.81;67.10;100874.25;5030265;28;20034;-44
2023/08/25 08:42:49;;;;;;;21.20;11.35;;;;;;;25.71;68.60;100871.19;5030714;28;20041;-48
2023/08/25 08:45:17;;;;;;;19.13;10.63;;;;;;;26.04;68.14;100875.81;5030370;28;20522;-46
2023/08/25 08:47:44;;;;;;;19.52;11.82;;;;;;;25.58;68.42;100870.06;5030675;28;20458;-45
2023/08/25 08:50:10;;;;;;;20.17;10.88;;;;;;;26.23;67.04;100860.53;5030756;28;20037;-46
2023/08/25 08:52:35;;;;;;;21.88;11.32;;;;;;;26.52;64.76;100873.31;5030239;28;20069;-44
2023/08/25 08:55:05;;;;;;;22.63;11.73;;;;;;;26.52;65.25;100875.97;5030070;28;20064;-46
2023/08/25 08:57:30;;;;;;;18.33;10.50;;;;;;;26.65;64.29;100877.03;5030035;28;20033;-47
2023/08/25 08:59:58;;;;;;;20.80;11.90;;;;;;;26.89;63.89;100864.22;5030553;28;20038;-44
2023/08/25 09:02:27;;;;;;;19.65;11.60;;;;;;;26.59;64.54;100879.19;5029937;28;20098;-47
2023/08/25 09:04:53;;;;;;;18.48;11.05;;;;;;;26.85;62.88;100880.47;5030139;28;20037;-44
2023/08/25 09:07:19;;;;;;;22.05;10.57;;;;;;;27.07;61.24;100881.06;5030001;28;20041;-47
2023/08/25 09:09:45;;;;;;;23.85;11.32;;;;;;;27.14;60.17;100889.63;5030446;28;20041;-46
2023/08/25 09:12:13;;;;;;;17.20;9.13;;;;;;;27.67;59.71;100878.63;5028490;28;20442;-48
2023/08/25 09:14:38;;;;;;;19.08;11.38;;;;;;;27.27;59.16;100894.19;5027971;28;20025;-46
2023/08/25 09:17:06;;;;;;;17.55;9.20;;;;;;;26.98;59.29;100890.47;5030419;28;20049;-49
2023/08/25 09:19:33;;;;;;;18.60;10.13;;;;;;;26.75;62.33;100900.63;5030134;28;20043;-46
2023/08/25 09:21:58;;;;;;;15.82;9.60;;;;;;;26.83;61.51;100901.97;5030078;28;20545;-48
2023/08/25 09:24:24;;;;;;;23.98;9.18;;;;;;;26.09;64.47;100908.50;5029597;28;20045;-44
2023/08/25 09:26:50;;;;;;;16.80;8.80;;;;;;;26.50;63.72;100909.94;5029664;28;20037;-45
2023/08/25 09:29:16;;;;;;;21.17;9.32;;;;;;;26.42;62.90;100901.44;5030009;28;20034;-44
2023/08/25 09:31:42;;;;;;;16.50;8.95;;;;;;;26.85;59.84;100904.53;5029133;28;20079;-45
2023/08/25 09:34:10;;;;;;;18.40;9.55;;;;;;;26.84;58.98;100906.34;5030019;28;20044;-47
2023/08/25 09:36:55;;;;;;;19.60;10.13;;;;;;;27.15;58.93;100907.41;5029061;28;20042;-45
2023/08/25 09:39:22;;;;;;;17.95;10.30;;;;;;;27.78;56.54;100897.59;5028183;28;20091;-49
2023/08/25 09:41:49;;;;;;;22.08;10.80;;;;;;;27.33;59.79;100890.31;5029851;28;20110;-46
2023/08/25 09:44:15;;;;;;;21.10;10.70;;;;;;;27.43;59.28;100892.41;5029857;28;20033;-47
2023/08/25 09:46:42;;;;;;;16.30;9.68;;;;;;;27.66;58.43;100890.28;5028917;28;20037;-46
2023/08/25 09:49:10;;;;;;;20.02;10.50;;;;;;;27.14;58.31;100893.16;5030061;28;20083;-43
2023/08/25 09:51:36;;;;;;;20.25;11.13;;;;;;;26.91;61.09;100896.22;5029027;28;20038;-46
2023/08/25 09:54:13;;;;;;;19.33;9.60;;;;;;;27.41;59.94;100891.63;5029619;28;20037;-45
2023/08/25 09:56:43;;;;;;;19.67;9.57;;;;;;;26.86;59.77;100893.75;5028649;28;20044;-48
2023/08/25 09:59:10;;;;;;;20.48;9.32;;;;;;;27.21;59.01;100893.69;5029383;28;20033;-46
2023/08/25 10:01:38;;;;;;;18.90;8.75;;;;;;;27.94;57.86;100886.84;5029334;28;20045;-44
2023/08/25 10:04:04;;;;;;;16.38;9.27;;;;;;;28.48;55.91;100882.75;5029833;28;20041;-45
2023/08/25 10:06:31;;;;;;;16.20;8.05;;;;;;;28.48;55.16;100877.41;5042942;28;20116;-43
2023/08/25 10:08:58;;;;;;;17.42;8.82;;;;;;;28.14;55.06;100878.53;5029915;28;20029;-42
2023/08/25 10:11:29;;;;;;;15.73;9.18;;;;;;;27.44;57.94;100872.72;5029707;28;20092;-44
2023/08/25 10:13:56;;;;;;;16.58;8.93;;;;;;;27.99;54.97;100866.91;5030196;28;20048;-46
2023/08/25 10:16:25;;;;;;;17.42;9.27;;;;;;;27.31;59.90;100868.16;5029801;28;20377;-46
2023/08/25 10:18:54;;;;;;;21.38;10.90;;;;;;;27.06;59.58;100857.94;5030029;28;20492;-48
2023/08/25 10:21:20;;;;;;;26.23;12.73;;;;;;;26.69;60.50;100866.19;5028975;28;20042;-43
2023/08/25 10:23:48;;;;;;;24.17;13.48;;;;;;;26.47;62.85;100864.63;5030007;28;20496;-49
2023/08/25 10:26:14;;;;;;;25.08;12.48;;;;;;;26.81;61.89;100862.88;5033082;28;20041;-44
2023/08/25 10:28:40;;;;;;;22.85;12.65;;;;;;;26.60;60.67;100865.72;5031741;28;20557;-48
2023/08/25 10:31:06;;;;;;;22.50;12.32;;;;;;;26.67;61.05;100866.28;5033743;28;20117;-46
2023/08/25 10:33:52;;;;;;;21.38;11.32;;;;;;;27.29;59.97;100849.47;5033594;28;20053;-49
2023/08/25 10:36:22;;;;;;;19.38;10.40;;;;;;;27.15;60.06;100860.09;5031890;28;20029;-44
2023/08/25 10:39:00;;;;;;;20.48;10.90;;;;;;;27.80;58.30;100856.38;5033543;28;20044;-45
2023/08/25 10:41:27;;;;;;;24.83;11.02;;;;;;;27.79;57.56;100860.03;5032745;28;20046;-46
2023/08/25 10:43:54;;;;;;;25.83;12.73;;;;;;;27.52;58.53;100855.38;5032891;28;20060;-46
2023/08/25 10:46:22;;;;;;;22.75;12.57;;;;;;;27.52;57.93;100852.69;5032178;28;20034;-48
2023/08/25 10:49:01;;;;;;;24.25;11.82;;;;;;;27.65;59.37;100856.41;5033525;28;20057;-47
2023/08/25 10:51:27;;;;;;;22.98;12.40;;;;;;;26.73;61.98;100873.09;5032774;28;20102;-46
2023/08/25 10:53:53;;;;;;;22.17;12.85;;;;;;;27.06;62.03;100868.63;5033353;28;20610;-49
2023/08/25 10:56:21;;;;;;;29.75;15.00;;;;;;;26.95;60.57;100869.22;5032297;28;20033;-48
2023/08/25 10:59:04;;;;;;;24.55;14.00;;;;;;;26.88;61.52;100864.25;5033265;28;20033;-47
2023/08/25 11:01:38;;;;;;;27.55;14.85;;;;;;;26.87;63.07;100859.84;5031821;28;20119;-48
2023/08/25 11:04:10;;;;;;;28.38;15.82;;;;;;;27.02;62.40;100870.59;5032645;28;20040;-44
2023/08/25 11:06:39;;;;;;;26.80;15.20;;;;;;;26.94;62.94;100864.81;5030466;28;20120;-47